Time;durP1;ratioP1;P1;durP2;ratioP2;P2;SDS_P1;SDS_P2;PMS_P1;PMS_P2;Temp;Humidity;BMP_temperature;BMP_pressure;BME280_temperature;BME280_humidity;BME280_pressure;Samples;Min_cycle;Max_cycle;Signal;HPM_P1;HPM_P2
2021/12/18 00:02:12;;;;;;;20.67;13.18;;;3.60;99.90;;;2.82;100.00;99211.94;5015433;28;20618;-44
2021/12/18 00:04:39;;;;;;;20.67;13.13;;;3.60;99.90;;;2.82;100.00;99213.66;5014046;28;20104;-45
2021/12/18 00:07:05;;;;;;;20.30;13.70;;;3.60;99.90;;;2.84;100.00;99209.38;5015526;28;20026;-44
2021/12/18 00:09:32;;;;;;;21.17;13.90;;;3.60;99.90;;;2.85;100.00;99214.63;5009849;28;20120;-46
2021/12/18 00:12:00;;;;;;;23.73;14.63;;;3.60;99.90;;;2.86;100.00;99213.75;5011772;28;20509;-46
2021/12/18 00:14:27;;;;;;;24.38;15.55;;;3.60;99.90;;;2.89;100.00;99212.06;5013219;28;20038;-45
2021/12/18 00:16:53;;;;;;;24.88;15.07;;;3.70;99.90;;;2.99;100.00;99212.31;5013603;28;20085;-48
2021/12/18 00:19:25;;;;;;;24.30;16.15;;;3.70;99.90;;;3.00;100.00;99208.88;5009143;28;20120;-48
2021/12/18 00:21:51;;;;;;;24.55;14.82;;;3.70;99.90;;;2.93;100.00;99206.97;5013578;28;20128;-46
2021/12/18 00:24:17;;;;;;;22.98;14.98;;;3.70;99.90;;;2.93;100.00;99226.94;5011034;28;20034;-45
2021/12/18 00:26:42;;;;;;;23.80;15.10;;;3.70;99.90;;;2.93;100.00;99209.56;5012330;28;20405;-44
2021/12/18 00:29:08;;;;;;;22.23;14.65;;;3.70;99.90;;;2.96;100.00;99208.75;5010410;28;20542;-43
2021/12/18 00:31:34;;;;;;;23.35;15.25;;;3.70;99.90;;;2.97;100.00;99215.72;5013884;28;20107;-43
2021/12/18 00:34:00;;;;;;;23.08;15.07;;;3.80;99.90;;;2.94;100.00;99220.88;5014200;28;20057;-45
2021/12/18 00:36:25;;;;;;;22.42;15.57;;;3.70;99.90;;;3.06;100.00;99215.94;5042223;23;20067;-39
2021/12/18 00:38:51;;;;;;;22.65;15.45;;;3.80;99.90;;;3.00;100.00;99202.78;5040748;28;20041;-42
2021/12/18 00:41:35;;;;;;;23.42;15.75;;;3.80;99.90;;;3.01;100.00;99218.44;5042557;28;20136;-41
2021/12/18 00:44:02;;;;;;;21.83;15.23;;;3.80;99.90;;;3.01;100.00;99220.16;5045557;28;20037;-43
2021/12/18 00:46:33;;;;;;;21.83;14.43;;;3.80;99.90;;;3.01;100.00;99209.72;5029951;28;20038;-43
2021/12/18 00:48:59;;;;;;;20.48;14.65;;;3.80;99.90;;;2.98;100.00;99215.78;5022637;28;20037;-44
2021/12/18 00:51:25;;;;;;;23.63;15.48;;;3.80;99.90;;;2.94;100.00;99210.44;5021601;28;20104;-43
2021/12/18 00:53:51;;;;;;;23.08;15.27;;;3.80;99.90;;;3.04;100.00;99215.91;5023063;28;20025;-39
2021/12/18 00:56:17;;;;;;;26.85;16.15;;;3.80;99.90;;;3.08;100.00;99218.59;5021345;28;20407;-40
2021/12/18 00:58:43;;;;;;;24.13;16.20;;;3.80;99.90;;;3.16;100.00;99220.50;5024644;28;20044;-41
2021/12/18 01:01:11;;;;;;;22.23;15.55;;;3.80;99.90;;;3.05;100.00;99217.66;5021631;28;20031;-41
2021/12/18 01:03:39;;;;;;;24.80;16.55;;;3.80;99.90;;;2.97;100.00;99221.81;5021773;28;20027;-42
2021/12/18 01:06:05;;;;;;;21.38;14.23;;;3.80;99.90;;;2.94;100.00;99218.25;5023950;28;20120;-42
2021/12/18 01:08:32;;;;;;;24.70;16.67;;;3.80;99.90;;;2.88;100.00;99205.09;5021482;28;20116;-41
2021/12/18 01:13:41;;;;;;;22.33;15.57;;;3.70;99.90;;;2.90;100.00;99214.72;5021030;28;20120;-42
2021/12/18 01:16:16;;;;;;;23.45;15.15;;;3.70;99.90;;;2.84;100.00;99217.19;5023745;28;20037;-42
2021/12/18 01:24:10;;;;;;;22.08;14.48;;;3.60;99.90;;;2.58;100.00;99175.75;5023477;28;20079;-41
2021/12/18 01:26:36;;;;;;;21.50;15.00;;;3.60;99.90;;;2.82;100.00;99208.47;5021360;28;20029;-43
2021/12/18 01:29:02;;;;;;;20.92;14.90;;;3.60;99.90;;;2.80;100.00;99210.13;5023430;28;20293;-43
2021/12/18 01:31:28;;;;;;;20.95;14.93;;;3.60;99.90;;;2.78;100.00;99212.72;5020918;28;20030;-47
2021/12/18 01:33:54;;;;;;;27.95;16.80;;;3.60;99.90;;;2.82;100.00;99216.28;5021500;28;20071;-46
2021/12/18 01:36:21;;;;;;;22.63;15.55;;;3.60;99.90;;;2.85;100.00;99214.63;5021827;28;20037;-42
2021/12/18 01:38:47;;;;;;;24.23;16.15;;;3.60;99.90;;;2.84;100.00;99220.66;5022268;28;20034;-40
2021/12/18 01:41:15;;;;;;;21.65;14.93;;;3.60;99.90;;;2.74;100.00;99215.19;5023360;28;20033;-44
2021/12/18 01:44:23;;;;;;;22.35;15.50;;;3.60;99.90;;;2.72;100.00;99222.09;5022157;28;20059;-41
2021/12/18 01:51:59;;;;;;;25.08;15.77;;;3.50;99.90;;;2.57;100.00;99218.28;5020829;28;20498;-44
2021/12/18 01:54:25;;;;;;;23.30;15.90;;;3.40;99.90;;;2.68;100.00;99222.03;5003858;28;20380;-42
2021/12/18 01:56:51;;;;;;;21.77;15.32;;;3.40;99.90;;;2.66;100.00;99230.66;5022769;28;20434;-41
2021/12/18 01:59:17;;;;;;;23.05;16.27;;;3.50;99.90;;;2.79;100.00;99227.50;5020934;28;20033;-41
2021/12/18 02:01:42;;;;;;;22.55;15.48;;;3.50;99.90;;;2.68;100.00;99223.75;5020089;28;20080;-42
2021/12/18 02:04:08;;;;;;;22.42;15.32;;;3.50;99.90;;;2.54;100.00;99214.75;5021064;28;20036;-41
2021/12/18 02:06:34;;;;;;;21.00;15.30;;;3.50;99.90;;;2.56;100.00;99218.25;5020052;28;20059;-41
2021/12/18 02:09:00;;;;;;;25.63;16.60;;;3.40;99.90;;;2.53;100.00;99226.88;5022922;28;20116;-41
2021/12/18 02:11:31;;;;;;;23.88;15.00;;;3.40;99.90;;;2.52;100.00;99224.25;5022339;28;20044;-41
2021/12/18 02:14:33;;;;;;;21.88;14.82;;;3.30;99.90;;;2.53;100.00;99225.97;5004658;28;20029;-39
2021/12/18 02:19:55;;;;;;;26.10;16.70;;;3.30;99.90;;;2.39;100.00;99215.25;5023085;28;20044;-45
2021/12/18 02:22:22;;;;;;;23.02;15.63;;;3.30;99.90;;;2.37;100.00;99214.31;5021662;28;20278;-42
2021/12/18 02:24:48;;;;;;;23.08;15.48;;;3.30;99.90;;;2.44;100.00;99209.31;5021532;28;20037;-43
2021/12/18 02:27:14;;;;;;;24.98;16.90;;;3.30;99.90;;;2.50;100.00;99211.19;5019411;28;20514;-42
2021/12/18 02:29:41;;;;;;;22.08;15.55;;;3.30;99.90;;;2.48;100.00;99216.34;5019593;28;20482;-41
2021/12/18 02:32:11;;;;;;;25.73;16.70;;;3.30;99.90;;;2.46;100.00;99204.13;5021200;28;20044;-43
2021/12/18 02:34:39;;;;;;;23.65;16.13;;;3.30;99.90;;;2.47;100.00;99216.31;5018733;28;20044;-44
2021/12/18 02:37:06;;;;;;;23.15;16.00;;;3.30;99.90;;;2.42;100.00;99200.59;5020537;28;20160;-42
2021/12/18 02:42:21;;;;;;;22.23;15.13;;;3.30;99.90;;;2.53;100.00;99205.16;5020194;28;20041;-43
2021/12/18 02:44:47;;;;;;;25.50;15.70;;;3.30;99.90;;;2.44;100.00;99208.41;5022711;28;20483;-42
2021/12/18 02:47:13;;;;;;;24.10;15.88;;;3.30;99.90;;;2.39;100.00;99217.84;5020107;28;20285;-44
2021/12/18 02:49:49;;;;;;;22.83;15.10;;;3.30;99.90;;;2.38;100.00;99216.06;5020973;28;20022;-44
2021/12/18 02:52:17;;;;;;;24.60;15.40;;;3.20;99.90;;;2.40;100.00;99214.38;5020174;28;20025;-43
2021/12/18 02:54:43;;;;;;;22.73;15.52;;;3.30;99.90;;;2.31;100.00;99202.00;5021031;28;20558;-42
2021/12/18 02:57:10;;;;;;;23.95;16.10;;;3.20;99.90;;;2.35;100.00;99216.91;5020058;28;20116;-43
2021/12/18 02:59:51;;;;;;;25.02;16.63;;;3.20;99.90;;;2.34;100.00;99219.47;5020796;28;20057;-44
2021/12/18 03:02:19;;;;;;;23.83;15.65;;;3.20;99.90;;;2.31;100.00;99203.75;5018027;28;20029;-42
2021/12/18 03:04:50;;;;;;;24.35;15.20;;;3.20;99.90;;;2.31;100.00;99204.63;5020494;28;20111;-41
2021/12/18 03:07:18;;;;;;;22.30;15.02;;;3.20;99.90;;;2.36;100.00;99197.81;5018434;28;20033;-43
2021/12/18 03:23:26;;;;;;;23.75;15.52;;;3.20;99.90;;;2.26;100.00;99207.13;5021107;28;20422;-44
2021/12/18 03:25:56;;;;;;;25.42;16.00;;;3.20;99.90;;;2.24;100.00;99215.72;5021491;28;20029;-43
2021/12/18 03:28:22;;;;;;;26.30;16.92;;;3.10;99.90;;;2.32;100.00;99216.81;5026445;28;20108;-42
2021/12/18 03:30:48;;;;;;;22.15;15.18;;;3.10;99.90;;;2.26;100.00;99214.03;5022583;28;20025;-45
2021/12/18 03:33:14;;;;;;;23.05;14.98;;;3.10;99.90;;;2.21;100.00;99206.13;5025643;28;20026;-44
2021/12/18 03:35:39;;;;;;;25.48;16.17;;;3.10;99.90;;;2.25;100.00;99212.28;5023486;28;20034;-44
2021/12/18 03:38:05;;;;;;;23.98;15.82;;;3.10;99.90;;;2.26;100.00;99212.34;5024107;28;20333;-42
2021/12/18 03:40:31;;;;;;;24.92;15.90;;;3.10;99.90;;;2.24;100.00;99210.50;5023691;28;20041;-42
2021/12/18 03:42:57;;;;;;;23.55;15.52;;;3.10;99.90;;;2.25;100.00;99220.09;5025001;28;20017;-44
2021/12/18 03:45:24;;;;;;;26.25;16.63;;;3.10;99.90;;;2.24;100.00;99211.41;5024023;28;20026;-44
2021/12/18 03:47:51;;;;;;;24.58;16.38;;;3.00;99.90;;;2.26;100.00;99211.44;5024005;28;20525;-45
2021/12/18 03:50:18;;;;;;;27.08;17.08;;;3.10;99.90;;;2.29;100.00;99211.53;5023220;28;20127;-50
2021/12/18 03:52:44;;;;;;;27.05;16.20;;;3.10;99.90;;;2.20;100.00;99211.28;5022982;28;20061;-41
2021/12/18 03:55:10;;;;;;;26.38;15.82;;;3.10;99.90;;;2.03;100.00;99197.84;5022839;28;20044;-42
2021/12/18 03:57:36;;;;;;;28.52;16.83;;;3.00;99.90;;;2.07;100.00;99207.50;5022728;28;20372;-41
2021/12/18 04:00:09;;;;;;;26.15;15.70;;;2.90;99.90;;;1.99;100.00;99191.69;5025316;28;20022;-44
2021/12/18 04:02:35;;;;;;;25.10;15.80;;;2.90;99.90;;;1.99;100.00;99185.59;5023985;28;20041;-42
2021/12/18 04:05:01;;;;;;;27.45;15.85;;;2.90;99.90;;;2.11;100.00;99193.72;5022738;28;20030;-41
2021/12/18 04:07:26;;;;;;;26.25;17.13;;;2.90;99.90;;;2.01;100.00;99194.31;5034690;28;20430;-41
2021/12/18 04:09:52;;;;;;;25.67;15.65;;;2.90;99.90;;;1.91;100.00;99181.06;5022995;28;20048;-41
2021/12/18 04:12:18;;;;;;;24.90;15.40;;;2.90;99.90;;;1.97;100.00;99185.53;5023387;28;20052;-41
2021/12/18 04:14:44;;;;;;;24.45;15.48;;;2.80;99.90;;;2.01;100.00;99194.31;5022828;28;20029;-48
2021/12/18 04:17:10;;;;;;;25.92;16.02;;;2.80;99.90;;;1.94;100.00;99195.88;5023935;28;20056;-42
2021/12/18 04:19:36;;;;;;;25.45;15.43;;;2.80;99.90;;;1.81;100.00;99185.97;5021996;28;20041;-39
2021/12/18 04:22:02;;;;;;;27.50;16.25;;;2.80;99.90;;;1.86;100.00;99200.88;5024036;28;20033;-43
2021/12/18 04:24:28;;;;;;;30.20;17.13;;;2.80;99.90;;;1.82;100.00;99203.38;5022970;28;20108;-43
2021/12/18 04:26:54;;;;;;;23.35;15.07;;;2.70;99.90;;;1.83;100.00;99199.91;5023073;28;20025;-43
2021/12/18 04:29:20;;;;;;;23.67;15.25;;;2.70;99.90;;;1.84;100.00;99194.75;5022925;28;20489;-41
2021/12/18 04:31:45;;;;;;;26.52;15.90;;;2.70;99.90;;;1.81;100.00;99181.69;5021642;28;20037;-44
2021/12/18 04:34:11;;;;;;;25.60;15.20;;;2.70;99.90;;;1.95;100.00;99195.03;5003487;28;20052;-42
2021/12/18 04:36:37;;;;;;;26.27;15.13;;;2.80;99.90;;;1.81;100.00;99183.38;5022204;28;20494;-41
2021/12/18 04:39:04;;;;;;;23.85;14.07;;;2.80;99.90;;;1.82;100.00;99191.22;5023071;28;20431;-42
2021/12/18 04:41:43;;;;;;;28.35;15.95;;;2.70;99.90;;;1.93;100.00;99194.13;5023179;28;20112;-43
2021/12/18 04:44:09;;;;;;;25.15;14.77;;;2.80;99.90;;;1.91;100.00;99182.78;5023485;28;20109;-43
2021/12/18 04:46:35;;;;;;;25.80;15.43;;;2.80;99.90;;;1.80;100.00;99184.25;5021720;28;20531;-42
2021/12/18 04:49:01;;;;;;;22.42;13.93;;;2.70;99.90;;;1.76;100.00;99177.16;5021226;28;20132;-45
2021/12/18 04:51:28;;;;;;;25.70;16.05;;;2.70;99.90;;;1.62;100.00;99174.22;5024308;28;20028;-44
2021/12/18 04:53:53;;;;;;;24.83;15.05;;;2.60;99.90;;;1.58;100.00;99165.44;5021983;28;20104;-43
2021/12/18 04:56:19;;;;;;;25.77;15.20;;;2.60;99.90;;;1.66;100.00;99187.34;5024006;28;20566;-44
2021/12/18 04:58:45;;;;;;;24.77;14.85;;;2.50;99.90;;;1.66;100.00;99189.94;5022532;28;20525;-45
2021/12/18 05:01:11;;;;;;;27.88;16.00;;;2.50;99.90;;;1.71;100.00;99185.75;5022695;28;20029;-47
2021/12/18 05:03:39;;;;;;;25.00;14.68;;;2.50;99.90;;;1.64;100.00;99193.34;5021517;28;20426;-44
2021/12/18 05:06:04;;;;;;;29.52;15.50;;;2.50;99.90;;;1.63;100.00;99186.38;5021944;28;20029;-44
2021/12/18 05:08:30;;;;;;;23.75;13.68;;;2.50;99.90;;;1.59;100.00;99198.41;5023391;28;20155;-41
2021/12/18 05:10:56;;;;;;;25.40;14.63;;;2.50;99.90;;;1.57;100.00;99197.47;5024007;28;20124;-41
2021/12/18 05:13:22;;;;;;;25.00;14.57;;;2.40;99.90;;;1.55;100.00;99180.09;5021766;28;20372;-39
2021/12/18 05:15:48;;;;;;;24.35;14.35;;;2.40;99.90;;;1.55;100.00;99173.16;5023846;28;20037;-42
2021/12/18 05:18:14;;;;;;;25.65;15.05;;;2.40;99.90;;;1.62;100.00;99179.41;5021525;28;21707;-42
2021/12/18 05:20:39;;;;;;;24.88;14.80;;;2.50;99.90;;;1.52;100.00;99180.88;5022982;28;20050;-40
2021/12/18 05:23:05;;;;;;;25.80;15.07;;;2.50;99.90;;;1.48;100.00;99181.63;5021321;28;20224;-43
2021/12/18 05:25:31;;;;;;;23.73;14.52;;;2.40;99.90;;;1.48;100.00;99186.84;5024058;28;20041;-40
2021/12/18 05:27:56;;;;;;;23.30;14.55;;;2.40;99.90;;;1.44;100.00;99185.88;5020071;28;20124;-40
2021/12/18 05:30:22;;;;;;;28.58;13.75;;;2.40;99.90;;;1.49;100.00;99193.78;5021200;28;20060;-42
2021/12/18 05:32:48;;;;;;;26.17;14.50;;;2.40;99.90;;;1.55;100.00;99195.69;5021341;28;20503;-41
2021/12/18 05:35:15;;;;;;;27.42;15.00;;;2.40;99.90;;;1.60;100.00;99197.59;5021332;28;20037;-43
2021/12/18 05:37:53;;;;;;;24.15;13.82;;;2.40;99.90;;;1.63;100.00;99196.78;5022466;28;20034;-42
2021/12/18 05:40:22;;;;;;;24.70;14.25;;;2.50;99.90;;;1.63;100.00;99200.25;5021811;28;20112;-43
2021/12/18 05:42:51;;;;;;;23.17;13.63;;;2.50;99.90;;;1.67;100.00;99199.50;5021960;28;20044;-42
2021/12/18 05:45:17;;;;;;;21.10;12.98;;;2.50;99.90;;;1.66;100.00;99189.94;5021830;28;20021;-42
2021/12/18 05:47:43;;;;;;;22.65;13.30;;;2.50;99.90;;;1.62;100.00;99202.84;5023673;28;20447;-42
2021/12/18 05:50:12;;;;;;;25.48;13.57;;;2.50;99.90;;;1.63;100.00;99209.78;5023405;28;20104;-43
2021/12/18 05:52:40;;;;;;;22.40;12.82;;;2.50;99.90;;;1.60;100.00;99210.59;5020741;28;20037;-42
2021/12/18 05:55:07;;;;;;;22.63;12.20;;;2.50;99.90;;;1.62;100.00;99211.50;5021306;28;20108;-41
2021/12/18 05:57:32;;;;;;;19.85;11.68;;;2.50;99.90;;;1.62;100.00;99210.63;5018360;28;20045;-42
2021/12/18 05:59:58;;;;;;;20.70;12.52;;;2.50;99.90;;;1.64;100.00;99206.34;5020917;28;20392;-44
2021/12/18 06:02:24;;;;;;;18.65;11.40;;;2.50;99.90;;;1.58;100.00;99199.25;5021542;28;20052;-41
2021/12/18 06:04:49;;;;;;;17.02;11.27;;;2.50;99.90;;;1.68;100.00;99198.66;5019978;28;20644;-42
2021/12/18 06:07:30;;;;;;;19.48;10.98;;;2.60;99.90;;;1.62;100.00;99215.84;5021355;28;20033;-45
2021/12/18 06:09:57;;;;;;;18.00;10.77;;;2.50;99.90;;;1.55;100.00;99213.91;5021922;28;20029;-42
2021/12/18 06:12:23;;;;;;;18.63;11.25;;;2.50;99.90;;;1.51;100.00;99208.59;5021192;28;20037;-41
2021/12/18 06:14:49;;;;;;;21.52;11.77;;;2.40;99.90;;;1.56;100.00;99207.84;5004250;28;20045;-43
2021/12/18 06:17:15;;;;;;;20.27;11.93;;;2.40;99.90;;;1.60;100.00;99205.38;5019144;28;20034;-42
2021/12/18 06:19:40;;;;;;;18.67;11.32;;;2.40;99.90;;;1.59;100.00;99207.94;5020954;28;20491;-41
2021/12/18 06:22:06;;;;;;;20.27;11.68;;;2.40;99.90;;;1.58;100.00;99198.34;5018710;28;20033;-44
2021/12/18 06:24:32;;;;;;;19.55;11.50;;;2.40;99.90;;;1.56;100.00;99223.44;5018784;28;20033;-44
2021/12/18 06:26:57;;;;;;;17.80;11.15;;;2.40;99.90;;;1.57;100.00;99217.41;5020076;28;20486;-43
2021/12/18 06:29:23;;;;;;;19.77;11.73;;;2.40;99.90;;;1.52;100.00;99217.28;5021164;28;20045;-42
2021/12/18 06:31:49;;;;;;;21.77;11.70;;;2.40;99.90;;;1.48;100.00;99225.84;5021611;28;20322;-40
2021/12/18 06:34:16;;;;;;;20.23;12.45;;;2.40;99.90;;;1.40;100.00;99219.53;5020138;28;20064;-44
2021/12/18 06:36:42;;;;;;;18.80;12.30;;;2.30;99.90;;;1.45;100.00;99221.41;5020839;28;20034;-42
2021/12/18 06:39:08;;;;;;;21.08;12.18;;;2.30;99.90;;;1.48;100.00;99216.31;5020995;28;20025;-42
2021/12/18 06:41:34;;;;;;;23.15;13.20;;;2.30;99.90;;;1.41;100.00;99211.78;5022147;28;20034;-44
2021/12/18 06:44:00;;;;;;;20.98;11.98;;;2.30;99.90;;;1.50;100.00;99226.75;5019327;28;20034;-41
2021/12/18 06:46:26;;;;;;;18.70;11.18;;;2.30;99.90;;;1.50;100.00;99216.34;5019568;28;20094;-41
2021/12/18 06:48:52;;;;;;;17.60;11.48;;;2.30;99.90;;;1.58;100.00;99222.66;5020501;28;20973;-43
2021/12/18 06:51:19;;;;;;;17.75;11.00;;;2.40;99.90;;;1.49;100.00;99223.28;5019602;28;20101;-44
2021/12/18 06:53:45;;;;;;;20.15;11.68;;;2.40;99.90;;;1.40;100.00;99212.63;5020007;28;20147;-42
2021/12/18 06:56:11;;;;;;;19.60;10.82;;;2.30;99.90;;;1.34;100.00;99207.22;5019707;28;20021;-44
2021/12/18 06:58:36;;;;;;;19.38;11.10;;;2.30;99.90;;;1.31;100.00;99200.25;5020080;28;20483;-41
2021/12/18 07:01:02;;;;;;;17.83;10.20;;;2.30;99.90;;;1.38;100.00;99216.00;5022622;28;20030;-44
2021/12/18 07:03:29;;;;;;;17.67;10.25;;;2.30;99.90;;;1.44;100.00;99211.88;5024016;28;20033;-45
2021/12/18 07:05:55;;;;;;;20.05;9.65;;;2.30;99.90;;;1.34;100.00;99202.03;5025601;28;20439;-46
2021/12/18 07:08:21;;;;;;;16.95;9.57;;;2.30;99.90;;;1.31;100.00;99205.44;5024012;28;20115;-44
2021/12/18 07:10:47;;;;;;;19.00;10.32;;;2.30;99.90;;;1.42;100.00;99229.16;5025271;28;20511;-44
2021/12/18 07:13:13;;;;;;;15.85;9.77;;;2.30;99.90;;;1.39;100.00;99228.19;5026597;28;20022;-42
2021/12/18 07:15:39;;;;;;;18.70;9.57;;;2.30;99.90;;;1.47;100.00;99214.56;5024285;28;20075;-44
2021/12/18 07:18:05;;;;;;;17.98;9.13;;;2.30;99.90;;;1.43;100.00;99224.81;5024206;28;20021;-45
2021/12/18 07:20:32;;;;;;;17.95;9.98;;;2.30;99.90;;;1.45;100.00;99220.53;5022812;28;20084;-41
2021/12/18 07:22:58;;;;;;;15.32;9.30;;;2.30;99.90;;;1.50;100.00;99238.03;5025010;28;20033;-42
2021/12/18 07:25:23;;;;;;;16.20;9.15;;;2.30;99.90;;;1.52;100.00;99235.47;5022778;28;20248;-46
2021/12/18 07:27:49;;;;;;;14.50;9.20;;;2.40;99.90;;;1.49;100.00;99232.78;5024529;28;20033;-42
2021/12/18 07:30:15;;;;;;;17.65;9.27;;;2.40;99.90;;;1.52;100.00;99240.69;5024115;28;20494;-44
2021/12/18 07:32:42;;;;;;;17.10;9.73;;;2.40;99.90;;;1.51;100.00;99244.13;5024453;28;20156;-43
2021/12/18 07:35:08;;;;;;;18.83;9.90;;;2.40;99.90;;;1.65;100.00;99250.63;5024010;28;20029;-44
2021/12/18 07:37:35;;;;;;;19.30;9.57;;;2.50;99.90;;;1.70;100.00;99258.53;5021713;28;20487;-42
2021/12/18 07:40:01;;;;;;;14.70;8.95;;;2.50;99.90;;;1.63;100.00;99261.78;5024300;28;20060;-43
2021/12/18 07:42:27;;;;;;;20.27;9.98;;;2.50;99.90;;;1.62;100.00;99247.91;5024195;28;20029;-45
2021/12/18 07:44:53;;;;;;;16.88;9.27;;;2.50;99.90;;;1.67;100.00;99256.75;5022817;28;20032;-41
2021/12/18 07:47:19;;;;;;;16.52;9.05;;;2.50;99.90;;;1.68;100.00;99255.00;5024301;28;21209;-42
2021/12/18 07:49:45;;;;;;;17.23;9.25;;;2.60;99.90;;;1.80;100.00;99254.47;5006337;28;20469;-42
2021/12/18 07:52:12;;;;;;;16.17;9.05;;;2.60;99.90;;;1.80;100.00;99246.69;5022599;28;20553;-43
2021/12/18 07:54:38;;;;;;;16.15;8.63;;;2.60;99.90;;;1.80;100.00;99251.88;5023047;28;20033;-40
2021/12/18 07:57:04;;;;;;;17.27;9.38;;;2.60;99.90;;;1.77;100.00;99262.19;5023619;28;20479;-41
2021/12/18 07:59:30;;;;;;;18.02;9.30;;;2.60;99.90;;;1.78;100.00;99251.84;5025246;28;20107;-41
2021/12/18 08:01:55;;;;;;;17.63;9.18;;;2.60;99.90;;;1.95;100.00;99252.28;5025460;28;20425;-42
2021/12/18 08:04:21;;;;;;;15.25;8.65;;;2.70;99.90;;;1.85;100.00;99255.50;5024488;28;20025;-46
2021/12/18 08:06:47;;;;;;;16.05;8.63;;;2.70;99.90;;;1.85;100.00;99255.50;5024531;28;20383;-45
2021/12/18 08:09:12;;;;;;;16.15;8.93;;;2.70;99.90;;;1.90;100.00;99249.56;5022841;28;20038;-42
2021/12/18 08:11:38;;;;;;;17.88;10.00;;;2.80;99.90;;;1.94;100.00;99252.25;5021556;28;21438;-43
2021/12/18 08:14:04;;;;;;;16.65;9.00;;;2.80;99.90;;;1.99;100.00;99255.84;5025219;28;20049;-41
2021/12/18 08:16:30;;;;;;;17.98;9.35;;;2.80;99.90;;;1.95;100.00;99243.59;5022128;28;20386;-42
2021/12/18 08:18:55;;;;;;;17.05;9.43;;;2.80;99.90;;;1.93;100.00;99259.16;5023330;28;20037;-42
2021/12/18 08:21:21;;;;;;;16.52;9.52;;;2.80;99.90;;;1.95;100.00;99261.81;5022696;28;20383;-42
2021/12/18 08:23:47;;;;;;;16.02;9.23;;;2.90;99.90;;;1.89;100.00;99257.34;5024148;28;20029;-41
2021/12/18 08:26:13;;;;;;;17.35;9.02;;;2.80;99.90;;;2.03;100.00;99252.50;5023331;28;20441;-41
2021/12/18 08:28:38;;;;;;;16.23;9.00;;;2.80;99.90;;;1.96;100.00;99238.44;5021460;28;20029;-42
2021/12/18 08:31:04;;;;;;;16.98;9.70;;;2.90;99.90;;;2.10;100.00;99250.09;5022250;28;20021;-41
2021/12/18 08:33:30;;;;;;;18.77;9.65;;;2.90;99.90;;;1.95;100.00;99223.66;5022827;28;20033;-43
2021/12/18 08:35:56;;;;;;;19.50;10.30;;;2.90;99.90;;;2.18;100.00;99254.63;5020750;28;20265;-42
2021/12/18 08:38:21;;;;;;;15.60;8.38;;;3.00;99.90;;;2.22;100.00;99252.13;5003906;28;20410;-42
2021/12/18 08:40:49;;;;;;;18.92;9.38;;;3.00;99.90;;;2.32;100.00;99252.41;5023066;28;20029;-43
2021/12/18 08:43:14;;;;;;;17.83;9.73;;;3.10;99.90;;;2.33;100.00;99255.00;5020467;28;20045;-42
2021/12/18 08:45:40;;;;;;;16.92;9.95;;;3.20;99.90;;;2.25;100.00;99257.44;5022106;28;20475;-45
2021/12/18 08:48:06;;;;;;;19.73;9.75;;;3.10;99.90;;;2.26;100.00;99253.09;5021984;28;20041;-43
2021/12/18 08:50:32;;;;;;;17.83;9.40;;;3.10;99.90;;;2.27;100.00;99244.44;5024346;28;20368;-42
2021/12/18 08:52:57;;;;;;;15.52;8.63;;;3.10;99.90;;;2.25;100.00;99241.81;5022437;28;20056;-44
2021/12/18 08:55:24;;;;;;;16.83;9.75;;;3.10;99.90;;;2.32;100.00;99249.78;5022690;28;20418;-42
2021/12/18 08:57:51;;;;;;;14.52;9.13;;;3.20;99.90;;;2.36;100.00;99249.00;5023114;28;20120;-40
2021/12/18 09:00:24;;;;;;;18.10;9.45;;;3.20;99.90;;;2.37;100.00;99250.75;5023323;28;20045;-43
2021/12/18 09:02:54;;;;;;;14.70;8.38;;;3.20;99.90;;;2.36;100.00;99236.88;5020944;28;20040;-44
2021/12/18 09:05:22;;;;;;;18.67;9.85;;;3.30;99.90;;;2.55;100.00;99246.03;5022587;28;20040;-43
2021/12/18 09:07:48;;;;;;;15.68;9.13;;;3.40;99.90;;;2.61;100.00;99255.72;5021023;28;20076;-45
2021/12/18 09:10:15;;;;;;;19.88;9.20;;;3.40;99.90;;;2.64;100.00;99251.47;5021292;28;20479;-44
2021/12/18 09:12:42;;;;;;;17.05;9.40;;;3.40;99.90;;;2.70;100.00;99237.69;5022638;28;20029;-42
2021/12/18 09:15:08;;;;;;;15.35;8.90;;;3.50;99.90;;;2.78;100.00;99241.38;5003276;28;20033;-42
2021/12/18 09:17:34;;;;;;;14.55;8.55;;;3.60;99.90;;;2.72;100.00;99238.63;5022504;28;20648;-42
2021/12/18 09:20:00;;;;;;;17.35;8.77;;;3.60;99.90;;;2.74;100.00;99226.50;5024729;28;20036;-43
2021/12/18 09:22:26;;;;;;;19.33;10.02;;;3.60;99.90;;;2.75;100.00;99243.03;5019591;28;20440;-42
2021/12/18 09:24:51;;;;;;;20.83;10.52;;;3.60;99.90;;;2.78;100.00;99230.97;5022073;28;20030;-43
2021/12/18 09:27:19;;;;;;;20.40;10.10;;;3.60;99.90;;;2.90;100.00;99232.06;5021979;28;20471;-43
2021/12/18 09:29:45;;;;;;;19.30;10.23;;;3.60;99.90;;;2.86;100.00;99237.22;5019778;28;20037;-42
2021/12/18 09:32:11;;;;;;;17.60;9.27;;;3.70;99.90;;;2.88;100.00;99234.66;5022152;28;20561;-43
2021/12/18 09:34:37;;;;;;;16.20;9.93;;;3.70;99.90;;;2.93;100.00;99242.59;5019625;28;20129;-42
2021/12/18 09:37:04;;;;;;;17.27;9.20;;;3.70;99.90;;;2.86;100.00;99232.00;5016905;28;20124;-43
2021/12/18 09:39:30;;;;;;;19.67;10.55;;;3.70;99.90;;;3.06;100.00;99239.41;5005258;28;20112;-44
2021/12/18 09:41:55;;;;;;;15.30;8.85;;;3.80;99.90;;;3.02;100.00;99238.44;5022302;28;20554;-44
2021/12/18 09:44:30;;;;;;;17.73;9.43;;;3.80;99.90;;;3.03;100.00;99226.28;5021421;28;20462;-43
2021/12/18 09:46:57;;;;;;;17.23;10.25;;;3.80;99.90;;;3.06;100.00;99231.56;5021695;28;20093;-42
2021/12/18 09:49:23;;;;;;;18.35;9.52;;;3.90;99.90;;;3.10;100.00;99222.97;5020207;28;20411;-43
2021/12/18 09:51:50;;;;;;;21.20;9.45;;;3.90;99.90;;;3.19;100.00;99225.78;5021524;28;20036;-41
2021/12/18 09:54:18;;;;;;;20.05;11.07;;;4.00;99.90;;;3.16;100.00;99217.00;5018327;28;20513;-41
2021/12/18 09:56:44;;;;;;;21.17;11.63;;;4.00;99.90;;;3.15;100.00;99217.88;5018631;28;20128;-43
2021/12/18 09:59:10;;;;;;;18.30;10.85;;;4.00;99.90;;;3.24;100.00;99218.06;5022524;28;20132;-44
2021/12/18 10:01:36;;;;;;;21.75;11.57;;;4.00;99.90;;;3.31;100.00;99216.47;5019867;28;20123;-44
2021/12/18 10:04:04;;;;;;;21.27;10.80;;;4.10;99.90;;;3.38;100.00;99216.63;5021197;28;20033;-44
2021/12/18 10:06:44;;;;;;;19.73;10.52;;;4.10;99.90;;;3.39;100.00;99215.78;5022141;28;20040;-43
2021/12/18 10:09:32;;;;;;;17.08;10.18;;;4.20;99.90;;;3.41;100.00;99208.88;5020226;28;20026;-41
2021/12/18 10:12:20;;;;;;;19.23;10.73;;;4.20;99.90;;;3.44;100.00;99202.81;5020425;28;20042;-43
2021/12/18 10:14:54;;;;;;;16.95;10.38;;;4.20;99.90;;;3.50;100.00;99197.75;5001795;28;20029;-44
2021/12/18 10:17:37;;;;;;;19.05;11.00;;;4.30;99.90;;;3.54;100.00;99198.69;5018811;28;20372;-44
2021/12/18 10:20:23;;;;;;;17.65;10.25;;;4.30;99.90;;;3.58;100.00;99187.47;4998821;28;20187;-41
2021/12/18 10:22:56;;;;;;;17.98;10.48;;;4.40;99.90;;;3.65;100.00;99193.69;5017325;28;20030;-41
2021/12/18 10:25:29;;;;;;;18.58;10.65;;;4.40;99.90;;;3.69;100.00;99195.50;5014617;28;20703;-42
2021/12/18 10:28:11;;;;;;;19.17;10.57;;;4.40;99.90;;;3.70;100.00;99194.66;5019835;28;20117;-39
2021/12/18 10:30:56;;;;;;;19.02;10.32;;;4.40;99.90;;;3.76;100.00;99194.75;5033400;28;20069;-41
2021/12/18 10:33:29;;;;;;;18.77;10.75;;;4.50;99.90;;;3.75;100.00;99191.28;5018223;28;22132;-42
2021/12/18 10:35:58;;;;;;;17.50;10.35;;;4.50;99.90;;;3.77;100.00;99183.47;5020506;28;20079;-41
2021/12/18 10:38:39;;;;;;;18.52;10.65;;;4.50;99.90;;;3.71;100.00;99194.66;5018664;28;20514;-42
2021/12/18 10:41:32;;;;;;;19.92;10.73;;;4.50;99.90;;;3.73;100.00;99192.09;5015518;28;20609;-44
2021/12/18 10:44:09;;;;;;;23.10;11.00;;;4.50;99.90;;;3.82;98.97;99185.31;5017173;28;20041;-42
2021/12/18 10:46:38;;;;;;;19.98;11.10;;;4.50;99.90;;;3.86;97.53;99177.53;4997983;28;20029;-44
2021/12/18 10:49:15;;;;;;;17.58;10.48;;;4.60;99.90;;;3.86;97.96;99177.53;5019889;28;20033;-48
2021/12/18 10:51:43;;;;;;;17.95;10.35;;;4.60;99.90;;;3.82;97.74;99161.84;5020847;28;20024;-44